Terminal Aerodrome Forecast
Issued by NWS Charleston, WV

Current Version | Previous Version | Graphics & Text | Print | Product List | Glossary On
Versions: 1 2 3 4 5 6 7 8 9 10 11 12 13 14 15 16 17 18 19 20 21 22
319
FTUS41 KRLX 011510 AAA
TAFCRW
TAF AMD
KCRW 011510Z 0115/0212 23007KT P6SM BKN014 BKN045 BKN100
     FM012100 24006KT 5SM -SHRA VCTS BKN040CB
     FM012300 26007KT 3SM SHRA VCTS BKN030CB
     FM020200 VRB02KT P6SM -SHRA VCTS OVC040CB=

USA.gov is the U.S. government's official web portal to all federal, state and local government web resources and services.